sensor_id;sensor_type;location;lat;lon;timestamp;temperature;humidity
35541;DHT22;21650;48.840;9.162;2024-02-04T00:00:28;8.40;99.90
35541;DHT22;21650;48.840;9.162;2024-02-04T00:02:54;8.40;99.90
35541;DHT22;21650;48.840;9.162;2024-02-04T00:05:20;8.40;99.90
35541;DHT22;21650;48.840;9.162;2024-02-04T00:07:46;8.40;99.90
35541;DHT22;21650;48.840;9.162;2024-02-04T00:10:12;8.40;99.90
35541;DHT22;21650;48.840;9.162;2024-02-04T00:12:38;8.40;99.90
35541;DHT22;21650;48.840;9.162;2024-02-04T00:15:05;8.40;99.90
35541;DHT22;21650;48.840;9.162;2024-02-04T00:17:31;8.40;99.90
35541;DHT22;21650;48.840;9.162;2024-02-04T00:19:59;8.40;99.90
35541;DHT22;21650;48.840;9.162;2024-02-04T00:22:24;8.30;99.90
35541;DHT22;21650;48.840;9.162;2024-02-04T00:24:50;8.20;99.90
35541;DHT22;21650;48.840;9.162;2024-02-04T00:27:16;8.20;99.90
35541;DHT22;21650;48.840;9.162;2024-02-04T00:29:42;8.20;99.90
35541;DHT22;21650;48.840;9.162;2024-02-04T00:32:07;8.10;99.90
35541;DHT22;21650;48.840;9.162;2024-02-04T00:34:33;8.10;99.90
35541;DHT22;21650;48.840;9.162;2024-02-04T00:36:59;7.90;99.90
35541;DHT22;21650;48.840;9.162;2024-02-04T00:39:25;8.00;99.90
35541;DHT22;21650;48.840;9.162;2024-02-04T00:41:51;7.90;99.90
35541;DHT22;21650;48.840;9.162;2024-02-04T00:44:17;7.80;99.90
35541;DHT22;21650;48.840;9.162;2024-02-04T00:46:43;7.90;99.90
35541;DHT22;21650;48.840;9.162;2024-02-04T00:49:09;7.80;99.90
35541;DHT22;21650;48.840;9.162;2024-02-04T00:51:34;7.80;99.90
35541;DHT22;21650;48.840;9.162;2024-02-04T00:54:00;7.80;99.90
35541;DHT22;21650;48.840;9.162;2024-02-04T00:56:25;7.80;99.90
35541;DHT22;21650;48.840;9.162;2024-02-04T00:58:51;7.80;99.90
35541;DHT22;21650;48.840;9.162;2024-02-04T01:01:17;7.90;99.90
35541;DHT22;21650;48.840;9.162;2024-02-04T01:03:42;7.90;99.90
35541;DHT22;21650;48.840;9.162;2024-02-04T01:06:08;7.90;99.90
35541;DHT22;21650;48.840;9.162;2024-02-04T01:08:33;7.90;99.90
35541;DHT22;21650;48.840;9.162;2024-02-04T01:11:00;7.90;99.90
35541;DHT22;21650;48.840;9.162;2024-02-04T01:13:28;7.80;99.90
35541;DHT22;21650;48.840;9.162;2024-02-04T01:15:54;7.80;99.90
35541;DHT22;21650;48.840;9.162;2024-02-04T01:18:19;7.80;99.90
35541;DHT22;21650;48.840;9.162;2024-02-04T01:20:45;7.80;99.90
35541;DHT22;21650;48.840;9.162;2024-02-04T01:23:11;7.70;99.90
35541;DHT22;21650;48.840;9.162;2024-02-04T01:25:38;7.70;99.90
35541;DHT22;21650;48.840;9.162;2024-02-04T01:28:04;7.70;99.90
35541;DHT22;21650;48.840;9.162;2024-02-04T01:30:29;7.70;99.90
35541;DHT22;21650;48.840;9.162;2024-02-04T01:32:56;7.60;99.90
35541;DHT22;21650;48.840;9.162;2024-02-04T01:35:22;7.60;99.90
35541;DHT22;21650;48.840;9.162;2024-02-04T01:37:48;7.60;99.90
35541;DHT22;21650;48.840;9.162;2024-02-04T01:40:14;7.50;99.90
35541;DHT22;21650;48.840;9.162;2024-02-04T01:42:40;7.60;99.90
35541;DHT22;21650;48.840;9.162;2024-02-04T01:45:05;7.60;99.90
35541;DHT22;21650;48.840;9.162;2024-02-04T01:47:31;7.50;99.90
35541;DHT22;21650;48.840;9.162;2024-02-04T01:49:57;7.50;99.90
35541;DHT22;21650;48.840;9.162;2024-02-04T01:52:23;7.40;99.90
35541;DHT22;21650;48.840;9.162;2024-02-04T01:54:49;7.40;99.90
35541;DHT22;21650;48.840;9.162;2024-02-04T01:57:16;7.40;99.90
35541;DHT22;21650;48.840;9.162;2024-02-04T01:59:42;7.40;99.90
35541;DHT22;21650;48.840;9.162;2024-02-04T02:02:08;7.40;99.90
35541;DHT22;21650;48.840;9.162;2024-02-04T02:04:34;7.50;99.90
35541;DHT22;21650;48.840;9.162;2024-02-04T02:06:59;7.50;99.90
35541;DHT22;21650;48.840;9.162;2024-02-04T02:09:26;7.40;99.90
35541;DHT22;21650;48.840;9.162;2024-02-04T02:12:01;7.40;99.90
35541;DHT22;21650;48.840;9.162;2024-02-04T02:14:32;7.40;99.90
35541;DHT22;21650;48.840;9.162;2024-02-04T02:17:02;7.40;99.90
35541;DHT22;21650;48.840;9.162;2024-02-04T02:19:59;7.30;99.90
35541;DHT22;21650;48.840;9.162;2024-02-04T02:22:40;7.30;99.90
35541;DHT22;21650;48.840;9.162;2024-02-04T02:25:11;7.30;99.90
35541;DHT22;21650;48.840;9.162;2024-02-04T02:27:48;7.30;99.90
35541;DHT22;21650;48.840;9.162;2024-02-04T02:30:14;7.50;99.90
35541;DHT22;21650;48.840;9.162;2024-02-04T02:32:40;7.60;99.90
35541;DHT22;21650;48.840;9.162;2024-02-04T02:35:06;7.60;99.90
35541;DHT22;21650;48.840;9.162;2024-02-04T02:40:43;7.70;99.90
35541;DHT22;21650;48.840;9.162;2024-02-04T02:43:11;7.80;99.90
35541;DHT22;21650;48.840;9.162;2024-02-04T02:45:41;7.80;99.90
35541;DHT22;21650;48.840;9.162;2024-02-04T02:48:07;7.80;99.90
35541;DHT22;21650;48.840;9.162;2024-02-04T02:50:37;7.80;99.90
35541;DHT22;21650;48.840;9.162;2024-02-04T02:53:03;7.80;99.90
35541;DHT22;21650;48.840;9.162;2024-02-04T02:55:29;7.80;99.90
35541;DHT22;21650;48.840;9.162;2024-02-04T02:57:54;7.80;99.90
35541;DHT22;21650;48.840;9.162;2024-02-04T03:00:20;7.80;99.90
35541;DHT22;21650;48.840;9.162;2024-02-04T03:02:46;7.90;99.90
35541;DHT22;21650;48.840;9.162;2024-02-04T03:05:12;7.90;99.90
35541;DHT22;21650;48.840;9.162;2024-02-04T03:07:37;7.90;99.90
35541;DHT22;21650;48.840;9.162;2024-02-04T03:10:03;7.80;99.90
35541;DHT22;21650;48.840;9.162;2024-02-04T03:12:29;7.80;99.90
35541;DHT22;21650;48.840;9.162;2024-02-04T03:14:55;7.80;99.90
35541;DHT22;21650;48.840;9.162;2024-02-04T03:17:21;7.80;99.90
35541;DHT22;21650;48.840;9.162;2024-02-04T03:19:48;7.80;99.90
35541;DHT22;21650;48.840;9.162;2024-02-04T03:22:14;7.80;99.90
35541;DHT22;21650;48.840;9.162;2024-02-04T03:24:40;7.80;99.90
35541;DHT22;21650;48.840;9.162;2024-02-04T03:27:06;7.80;99.90
35541;DHT22;21650;48.840;9.162;2024-02-04T03:29:31;7.90;99.90
35541;DHT22;21650;48.840;9.162;2024-02-04T03:31:57;7.90;99.90
35541;DHT22;21650;48.840;9.162;2024-02-04T03:34:22;7.90;99.90
35541;DHT22;21650;48.840;9.162;2024-02-04T03:36:48;7.90;99.90
35541;DHT22;21650;48.840;9.162;2024-02-04T03:39:13;7.90;99.90
35541;DHT22;21650;48.840;9.162;2024-02-04T03:41:39;7.90;99.90
35541;DHT22;21650;48.840;9.162;2024-02-04T03:44:05;7.90;99.90
35541;DHT22;21650;48.840;9.162;2024-02-04T03:46:31;7.90;99.90
35541;DHT22;21650;48.840;9.162;2024-02-04T03:48:57;7.90;99.90
35541;DHT22;21650;48.840;9.162;2024-02-04T03:51:22;7.80;99.90
35541;DHT22;21650;48.840;9.162;2024-02-04T03:53:50;7.80;99.90
35541;DHT22;21650;48.840;9.162;2024-02-04T03:56:16;7.80;99.90
35541;DHT22;21650;48.840;9.162;2024-02-04T03:58:42;7.80;99.90
35541;DHT22;21650;48.840;9.162;2024-02-04T04:01:11;7.80;99.90
35541;DHT22;21650;48.840;9.162;2024-02-04T04:03:43;7.80;99.90
35541;DHT22;21650;48.840;9.162;2024-02-04T04:06:09;7.80;99.90
35541;DHT22;21650;48.840;9.162;2024-02-04T04:08:36;7.90;99.90
35541;DHT22;21650;48.840;9.162;2024-02-04T04:11:02;8.00;99.90
35541;DHT22;21650;48.840;9.162;2024-02-04T04:13:27;8.00;99.90
35541;DHT22;21650;48.840;9.162;2024-02-04T04:15:53;8.00;99.90
35541;DHT22;21650;48.840;9.162;2024-02-04T04:18:19;7.90;99.90
35541;DHT22;21650;48.840;9.162;2024-02-04T04:20:45;7.90;99.90
35541;DHT22;21650;48.840;9.162;2024-02-04T04:23:10;7.90;99.90
35541;DHT22;21650;48.840;9.162;2024-02-04T04:25:37;7.90;99.90
35541;DHT22;21650;48.840;9.162;2024-02-04T04:28:03;7.90;99.90
35541;DHT22;21650;48.840;9.162;2024-02-04T04:30:28;7.90;99.90
35541;DHT22;21650;48.840;9.162;2024-02-04T04:32:54;7.90;99.90
35541;DHT22;21650;48.840;9.162;2024-02-04T04:35:20;7.90;99.90
35541;DHT22;21650;48.840;9.162;2024-02-04T04:37:45;7.90;99.90
35541;DHT22;21650;48.840;9.162;2024-02-04T04:40:12;7.90;99.90
35541;DHT22;21650;48.840;9.162;2024-02-04T04:42:37;7.90;99.90
35541;DHT22;21650;48.840;9.162;2024-02-04T04:45:04;7.90;99.90
35541;DHT22;21650;48.840;9.162;2024-02-04T04:47:29;7.80;99.90
35541;DHT22;21650;48.840;9.162;2024-02-04T04:49:55;7.80;99.90
35541;DHT22;21650;48.840;9.162;2024-02-04T04:52:20;7.80;99.90
35541;DHT22;21650;48.840;9.162;2024-02-04T04:54:48;7.90;99.90
35541;DHT22;21650;48.840;9.162;2024-02-04T04:57:13;7.90;99.90
35541;DHT22;21650;48.840;9.162;2024-02-04T04:59:39;8.00;99.90
35541;DHT22;21650;48.840;9.162;2024-02-04T05:02:05;7.90;99.90
35541;DHT22;21650;48.840;9.162;2024-02-04T05:04:31;7.90;99.90
35541;DHT22;21650;48.840;9.162;2024-02-04T05:06:56;7.90;99.90
35541;DHT22;21650;48.840;9.162;2024-02-04T05:09:22;8.00;99.90
35541;DHT22;21650;48.840;9.162;2024-02-04T05:11:48;7.90;99.90
35541;DHT22;21650;48.840;9.162;2024-02-04T05:14:13;7.90;99.90
35541;DHT22;21650;48.840;9.162;2024-02-04T05:16:39;7.90;99.90
35541;DHT22;21650;48.840;9.162;2024-02-04T05:19:04;7.90;99.90
35541;DHT22;21650;48.840;9.162;2024-02-04T05:21:30;8.00;99.90
35541;DHT22;21650;48.840;9.162;2024-02-04T05:23:56;7.90;99.90
35541;DHT22;21650;48.840;9.162;2024-02-04T05:26:21;7.90;99.90
35541;DHT22;21650;48.840;9.162;2024-02-04T05:28:47;7.80;99.90
35541;DHT22;21650;48.840;9.162;2024-02-04T05:31:12;7.80;99.90
35541;DHT22;21650;48.840;9.162;2024-02-04T05:33:38;7.80;99.90
35541;DHT22;21650;48.840;9.162;2024-02-04T05:36:04;7.70;99.90
35541;DHT22;21650;48.840;9.162;2024-02-04T05:38:30;7.80;99.90
35541;DHT22;21650;48.840;9.162;2024-02-04T05:40:56;7.80;99.90
35541;DHT22;21650;48.840;9.162;2024-02-04T05:43:21;7.80;99.90
35541;DHT22;21650;48.840;9.162;2024-02-04T05:45:47;7.80;99.90
35541;DHT22;21650;48.840;9.162;2024-02-04T05:48:13;7.80;99.90
35541;DHT22;21650;48.840;9.162;2024-02-04T05:50:39;7.90;99.90
35541;DHT22;21650;48.840;9.162;2024-02-04T05:53:04;8.00;99.90
35541;DHT22;21650;48.840;9.162;2024-02-04T05:55:30;8.10;99.90
35541;DHT22;21650;48.840;9.162;2024-02-04T05:57:56;8.10;99.90
35541;DHT22;21650;48.840;9.162;2024-02-04T06:00:21;8.10;99.90
35541;DHT22;21650;48.840;9.162;2024-02-04T06:02:47;8.20;99.90
35541;DHT22;21650;48.840;9.162;2024-02-04T06:05:13;8.20;99.90
35541;DHT22;21650;48.840;9.162;2024-02-04T06:07:39;8.30;99.90
35541;DHT22;21650;48.840;9.162;2024-02-04T06:10:09;8.30;99.90
35541;DHT22;21650;48.840;9.162;2024-02-04T06:12:34;8.30;99.90
35541;DHT22;21650;48.840;9.162;2024-02-04T06:15:00;8.40;99.90
35541;DHT22;21650;48.840;9.162;2024-02-04T06:17:25;8.50;99.90
35541;DHT22;21650;48.840;9.162;2024-02-04T06:19:51;8.40;99.90
35541;DHT22;21650;48.840;9.162;2024-02-04T06:22:16;8.40;99.90
35541;DHT22;21650;48.840;9.162;2024-02-04T06:24:42;8.40;99.90
35541;DHT22;21650;48.840;9.162;2024-02-04T06:27:08;8.30;99.90
35541;DHT22;21650;48.840;9.162;2024-02-04T06:29:34;8.30;99.90
35541;DHT22;21650;48.840;9.162;2024-02-04T06:31:59;8.40;99.90
35541;DHT22;21650;48.840;9.162;2024-02-04T06:34:25;8.30;99.90
35541;DHT22;21650;48.840;9.162;2024-02-04T06:36:51;8.30;99.90
35541;DHT22;21650;48.840;9.162;2024-02-04T06:39:16;8.30;99.90
35541;DHT22;21650;48.840;9.162;2024-02-04T06:41:42;8.30;99.90
35541;DHT22;21650;48.840;9.162;2024-02-04T06:44:08;8.30;99.90
35541;DHT22;21650;48.840;9.162;2024-02-04T06:46:34;8.20;99.90
35541;DHT22;21650;48.840;9.162;2024-02-04T06:48:59;8.20;99.90
35541;DHT22;21650;48.840;9.162;2024-02-04T06:51:25;8.20;99.90
35541;DHT22;21650;48.840;9.162;2024-02-04T06:53:50;8.20;99.90
35541;DHT22;21650;48.840;9.162;2024-02-04T06:56:16;8.30;99.90
35541;DHT22;21650;48.840;9.162;2024-02-04T06:58:43;8.30;99.90
35541;DHT22;21650;48.840;9.162;2024-02-04T07:01:09;8.40;99.90
35541;DHT22;21650;48.840;9.162;2024-02-04T07:03:35;8.30;99.90
35541;DHT22;21650;48.840;9.162;2024-02-04T07:06:01;8.30;99.90
35541;DHT22;21650;48.840;9.162;2024-02-04T07:08:27;8.30;99.90
35541;DHT22;21650;48.840;9.162;2024-02-04T07:10:53;8.20;99.90
35541;DHT22;21650;48.840;9.162;2024-02-04T07:13:19;8.20;99.90
35541;DHT22;21650;48.840;9.162;2024-02-04T07:15:45;8.20;99.90
35541;DHT22;21650;48.840;9.162;2024-02-04T07:18:11;8.30;99.90
35541;DHT22;21650;48.840;9.162;2024-02-04T07:20:37;8.20;99.90
35541;DHT22;21650;48.840;9.162;2024-02-04T07:23:04;8.20;99.90
35541;DHT22;21650;48.840;9.162;2024-02-04T07:25:30;8.20;99.90
35541;DHT22;21650;48.840;9.162;2024-02-04T07:27:55;8.20;99.90
35541;DHT22;21650;48.840;9.162;2024-02-04T07:30:22;8.10;99.90
35541;DHT22;21650;48.840;9.162;2024-02-04T07:32:48;8.10;99.90
35541;DHT22;21650;48.840;9.162;2024-02-04T07:35:14;8.20;99.90
35541;DHT22;21650;48.840;9.162;2024-02-04T07:37:39;8.10;99.90
35541;DHT22;21650;48.840;9.162;2024-02-04T07:40:06;8.20;99.90
35541;DHT22;21650;48.840;9.162;2024-02-04T07:42:32;8.20;99.90
35541;DHT22;21650;48.840;9.162;2024-02-04T07:44:58;8.30;99.90
35541;DHT22;21650;48.840;9.162;2024-02-04T07:47:24;8.20;99.90
35541;DHT22;21650;48.840;9.162;2024-02-04T07:49:50;8.30;99.90
35541;DHT22;21650;48.840;9.162;2024-02-04T07:52:16;8.40;99.90
35541;DHT22;21650;48.840;9.162;2024-02-04T07:54:42;8.40;99.90
35541;DHT22;21650;48.840;9.162;2024-02-04T07:57:09;8.50;99.90
35541;DHT22;21650;48.840;9.162;2024-02-04T07:59:34;8.50;99.90
35541;DHT22;21650;48.840;9.162;2024-02-04T08:02:01;8.60;99.90
35541;DHT22;21650;48.840;9.162;2024-02-04T08:04:26;8.70;99.90
35541;DHT22;21650;48.840;9.162;2024-02-04T08:06:52;8.70;99.90
35541;DHT22;21650;48.840;9.162;2024-02-04T08:09:18;8.70;99.90
35541;DHT22;21650;48.840;9.162;2024-02-04T08:11:44;8.80;99.90
35541;DHT22;21650;48.840;9.162;2024-02-04T08:14:09;8.70;99.90
35541;DHT22;21650;48.840;9.162;2024-02-04T08:16:35;8.70;99.90
35541;DHT22;21650;48.840;9.162;2024-02-04T08:19:00;8.70;99.90
35541;DHT22;21650;48.840;9.162;2024-02-04T08:21:26;8.80;99.90
35541;DHT22;21650;48.840;9.162;2024-02-04T08:23:52;8.80;99.90
35541;DHT22;21650;48.840;9.162;2024-02-04T08:26:17;8.90;99.90
35541;DHT22;21650;48.840;9.162;2024-02-04T08:28:44;8.90;99.90
35541;DHT22;21650;48.840;9.162;2024-02-04T08:31:09;9.00;99.90
35541;DHT22;21650;48.840;9.162;2024-02-04T08:33:35;9.00;99.90
35541;DHT22;21650;48.840;9.162;2024-02-04T08:36:00;9.10;99.90
35541;DHT22;21650;48.840;9.162;2024-02-04T08:38:26;9.10;99.90
35541;DHT22;21650;48.840;9.162;2024-02-04T08:40:52;9.20;99.90
35541;DHT22;21650;48.840;9.162;2024-02-04T08:43:17;9.20;99.90
35541;DHT22;21650;48.840;9.162;2024-02-04T08:45:43;9.20;99.90
35541;DHT22;21650;48.840;9.162;2024-02-04T08:48:08;9.20;99.90
35541;DHT22;21650;48.840;9.162;2024-02-04T08:50:34;9.30;99.90
35541;DHT22;21650;48.840;9.162;2024-02-04T08:52:59;9.30;99.90
35541;DHT22;21650;48.840;9.162;2024-02-04T08:55:25;9.40;99.90
35541;DHT22;21650;48.840;9.162;2024-02-04T08:57:51;9.40;99.90
35541;DHT22;21650;48.840;9.162;2024-02-04T09:00:19;9.40;99.90
35541;DHT22;21650;48.840;9.162;2024-02-04T09:02:45;9.40;99.90
35541;DHT22;21650;48.840;9.162;2024-02-04T09:05:12;9.40;99.90
35541;DHT22;21650;48.840;9.162;2024-02-04T09:07:38;9.50;99.90
35541;DHT22;21650;48.840;9.162;2024-02-04T09:10:04;9.50;99.90
35541;DHT22;21650;48.840;9.162;2024-02-04T09:12:30;9.50;99.90
35541;DHT22;21650;48.840;9.162;2024-02-04T09:14:56;9.60;99.90
35541;DHT22;21650;48.840;9.162;2024-02-04T09:17:22;9.60;99.90
35541;DHT22;21650;48.840;9.162;2024-02-04T09:19:47;9.60;99.90
35541;DHT22;21650;48.840;9.162;2024-02-04T09:22:13;9.60;99.90
35541;DHT22;21650;48.840;9.162;2024-02-04T09:24:38;9.60;99.90
35541;DHT22;21650;48.840;9.162;2024-02-04T09:27:04;9.60;99.90
35541;DHT22;21650;48.840;9.162;2024-02-04T09:29:30;9.70;99.90
35541;DHT22;21650;48.840;9.162;2024-02-04T09:31:55;9.70;99.90
35541;DHT22;21650;48.840;9.162;2024-02-04T09:34:21;9.70;99.90
35541;DHT22;21650;48.840;9.162;2024-02-04T09:36:47;9.70;99.90
35541;DHT22;21650;48.840;9.162;2024-02-04T09:39:12;9.70;99.90
35541;DHT22;21650;48.840;9.162;2024-02-04T09:41:38;9.70;99.90
35541;DHT22;21650;48.840;9.162;2024-02-04T09:44:04;9.80;99.90
35541;DHT22;21650;48.840;9.162;2024-02-04T09:46:31;9.80;99.90
35541;DHT22;21650;48.840;9.162;2024-02-04T09:48:57;9.80;99.90
35541;DHT22;21650;48.840;9.162;2024-02-04T09:51:26;9.90;99.90
35541;DHT22;21650;48.840;9.162;2024-02-04T09:53:53;9.90;99.90
35541;DHT22;21650;48.840;9.162;2024-02-04T09:56:21;9.90;99.90
35541;DHT22;21650;48.840;9.162;2024-02-04T09:58:48;9.90;99.90
35541;DHT22;21650;48.840;9.162;2024-02-04T10:01:14;9.90;99.90
35541;DHT22;21650;48.840;9.162;2024-02-04T10:03:41;9.90;99.90
35541;DHT22;21650;48.840;9.162;2024-02-04T10:06:07;10.00;99.90
35541;DHT22;21650;48.840;9.162;2024-02-04T10:08:35;10.10;99.90
35541;DHT22;21650;48.840;9.162;2024-02-04T10:11:01;10.20;99.90
35541;DHT22;21650;48.840;9.162;2024-02-04T10:13:27;10.20;99.90
35541;DHT22;21650;48.840;9.162;2024-02-04T10:15:52;10.30;99.90
35541;DHT22;21650;48.840;9.162;2024-02-04T10:18:18;10.40;99.90
35541;DHT22;21650;48.840;9.162;2024-02-04T10:20:44;10.50;99.90
35541;DHT22;21650;48.840;9.162;2024-02-04T10:23:09;10.60;99.90
35541;DHT22;21650;48.840;9.162;2024-02-04T10:25:35;10.60;99.90
35541;DHT22;21650;48.840;9.162;2024-02-04T10:28:01;10.50;99.90
35541;DHT22;21650;48.840;9.162;2024-02-04T10:30:26;10.50;99.90
35541;DHT22;21650;48.840;9.162;2024-02-04T10:32:53;10.70;99.90
35541;DHT22;21650;48.840;9.162;2024-02-04T10:35:23;10.70;99.90
35541;DHT22;21650;48.840;9.162;2024-02-04T10:37:52;10.70;99.90
35541;DHT22;21650;48.840;9.162;2024-02-04T10:40:18;10.60;99.90
35541;DHT22;21650;48.840;9.162;2024-02-04T10:42:44;10.70;99.90
35541;DHT22;21650;48.840;9.162;2024-02-04T10:45:10;10.80;99.90
35541;DHT22;21650;48.840;9.162;2024-02-04T10:47:40;10.80;99.90
35541;DHT22;21650;48.840;9.162;2024-02-04T10:50:07;10.90;99.90
35541;DHT22;21650;48.840;9.162;2024-02-04T10:52:39;11.00;99.90
35541;DHT22;21650;48.840;9.162;2024-02-04T10:55:08;10.90;99.90
35541;DHT22;21650;48.840;9.162;2024-02-04T10:57:35;11.10;99.90
35541;DHT22;21650;48.840;9.162;2024-02-04T11:00:02;11.00;99.90
35541;DHT22;21650;48.840;9.162;2024-02-04T11:02:34;10.90;99.90
35541;DHT22;21650;48.840;9.162;2024-02-04T11:05:01;10.80;99.90
35541;DHT22;21650;48.840;9.162;2024-02-04T11:07:33;10.90;99.90
35541;DHT22;21650;48.840;9.162;2024-02-04T11:10:00;10.90;99.90
35541;DHT22;21650;48.840;9.162;2024-02-04T11:12:28;11.00;99.90
35541;DHT22;21650;48.840;9.162;2024-02-04T11:14:56;11.20;99.90
35541;DHT22;21650;48.840;9.162;2024-02-04T11:20:28;11.50;99.90
35541;DHT22;21650;48.840;9.162;2024-02-04T11:25:56;11.70;99.90
35541;DHT22;21650;48.840;9.162;2024-02-04T11:28:23;11.70;99.90
35541;DHT22;21650;48.840;9.162;2024-02-04T11:30:51;11.70;99.90
35541;DHT22;21650;48.840;9.162;2024-02-04T11:33:21;11.50;99.90
35541;DHT22;21650;48.840;9.162;2024-02-04T11:35:58;11.40;99.90
35541;DHT22;21650;48.840;9.162;2024-02-04T11:38:35;11.30;99.90
35541;DHT22;21650;48.840;9.162;2024-02-04T11:41:05;11.20;99.90
35541;DHT22;21650;48.840;9.162;2024-02-04T11:43:34;11.10;99.90
35541;DHT22;21650;48.840;9.162;2024-02-04T11:46:03;11.20;99.90
35541;DHT22;21650;48.840;9.162;2024-02-04T11:48:29;11.30;99.90
35541;DHT22;21650;48.840;9.162;2024-02-04T11:50:58;11.40;99.90
35541;DHT22;21650;48.840;9.162;2024-02-04T11:53:24;11.40;99.90
35541;DHT22;21650;48.840;9.162;2024-02-04T11:55:54;11.50;99.90
35541;DHT22;21650;48.840;9.162;2024-02-04T11:58:20;11.40;99.90
35541;DHT22;21650;48.840;9.162;2024-02-04T12:00:45;11.30;99.90
35541;DHT22;21650;48.840;9.162;2024-02-04T12:03:11;11.30;99.90
35541;DHT22;21650;48.840;9.162;2024-02-04T12:05:37;11.10;99.90
35541;DHT22;21650;48.840;9.162;2024-02-04T12:08:07;11.00;99.90
35541;DHT22;21650;48.840;9.162;2024-02-04T12:10:35;11.00;99.90
35541;DHT22;21650;48.840;9.162;2024-02-04T12:13:05;11.00;99.90
35541;DHT22;21650;48.840;9.162;2024-02-04T12:15:35;11.00;99.90
35541;DHT22;21650;48.840;9.162;2024-02-04T12:18:08;11.00;99.90
35541;DHT22;21650;48.840;9.162;2024-02-04T12:20:34;11.00;99.90
35541;DHT22;21650;48.840;9.162;2024-02-04T12:23:02;11.00;99.90
35541;DHT22;21650;48.840;9.162;2024-02-04T12:25:27;11.00;99.90
35541;DHT22;21650;48.840;9.162;2024-02-04T12:27:55;11.10;99.90
35541;DHT22;21650;48.840;9.162;2024-02-04T12:30:20;11.00;99.90
35541;DHT22;21650;48.840;9.162;2024-02-04T12:32:58;11.00;99.90
35541;DHT22;21650;48.840;9.162;2024-02-04T12:35:25;11.10;99.90
35541;DHT22;21650;48.840;9.162;2024-02-04T12:37:55;11.20;99.90
35541;DHT22;21650;48.840;9.162;2024-02-04T12:40:23;11.10;99.90
35541;DHT22;21650;48.840;9.162;2024-02-04T12:42:58;11.20;99.90
35541;DHT22;21650;48.840;9.162;2024-02-04T12:45:25;11.30;99.90
35541;DHT22;21650;48.840;9.162;2024-02-04T12:47:56;11.20;99.90
35541;DHT22;21650;48.840;9.162;2024-02-04T12:50:22;11.30;99.90
35541;DHT22;21650;48.840;9.162;2024-02-04T12:52:49;11.20;99.90
35541;DHT22;21650;48.840;9.162;2024-02-04T12:55:25;11.30;99.90
35541;DHT22;21650;48.840;9.162;2024-02-04T13:00:34;11.60;99.90
35541;DHT22;21650;48.840;9.162;2024-02-04T13:03:00;11.60;99.90
35541;DHT22;21650;48.840;9.162;2024-02-04T13:05:26;11.60;99.90
35541;DHT22;21650;48.840;9.162;2024-02-04T13:07:55;11.70;99.90
35541;DHT22;21650;48.840;9.162;2024-02-04T13:10:24;11.60;99.90
35541;DHT22;21650;48.840;9.162;2024-02-04T13:13:04;11.40;99.90
35541;DHT22;21650;48.840;9.162;2024-02-04T13:15:36;11.40;99.90
35541;DHT22;21650;48.840;9.162;2024-02-04T13:18:02;11.40;99.90
35541;DHT22;21650;48.840;9.162;2024-02-04T13:20:27;11.50;99.90
35541;DHT22;21650;48.840;9.162;2024-02-04T13:22:53;11.50;99.90
35541;DHT22;21650;48.840;9.162;2024-02-04T13:25:20;11.50;99.90
35541;DHT22;21650;48.840;9.162;2024-02-04T13:27:47;11.50;99.90
35541;DHT22;21650;48.840;9.162;2024-02-04T13:30:13;11.50;99.90
35541;DHT22;21650;48.840;9.162;2024-02-04T13:32:40;11.40;99.90
35541;DHT22;21650;48.840;9.162;2024-02-04T13:35:06;11.40;99.90
35541;DHT22;21650;48.840;9.162;2024-02-04T13:37:35;11.30;99.90
35541;DHT22;21650;48.840;9.162;2024-02-04T13:40:02;11.20;99.90
35541;DHT22;21650;48.840;9.162;2024-02-04T13:42:28;11.20;99.90
35541;DHT22;21650;48.840;9.162;2024-02-04T13:44:54;11.10;99.90
35541;DHT22;21650;48.840;9.162;2024-02-04T13:47:20;11.20;99.90
35541;DHT22;21650;48.840;9.162;2024-02-04T13:49:45;11.30;99.90
35541;DHT22;21650;48.840;9.162;2024-02-04T13:52:11;11.30;99.90
35541;DHT22;21650;48.840;9.162;2024-02-04T13:54:36;11.30;99.90
35541;DHT22;21650;48.840;9.162;2024-02-04T13:57:02;11.50;99.90
35541;DHT22;21650;48.840;9.162;2024-02-04T13:59:27;11.50;99.90
35541;DHT22;21650;48.840;9.162;2024-02-04T14:01:53;11.50;99.90
35541;DHT22;21650;48.840;9.162;2024-02-04T14:04:19;11.40;99.90
35541;DHT22;21650;48.840;9.162;2024-02-04T14:06:44;11.50;99.90
35541;DHT22;21650;48.840;9.162;2024-02-04T14:09:10;11.40;99.90
35541;DHT22;21650;48.840;9.162;2024-02-04T14:11:38;11.50;99.90
35541;DHT22;21650;48.840;9.162;2024-02-04T14:14:04;11.40;99.90
35541;DHT22;21650;48.840;9.162;2024-02-04T14:16:29;11.40;99.90
35541;DHT22;21650;48.840;9.162;2024-02-04T14:18:55;11.30;99.90
35541;DHT22;21650;48.840;9.162;2024-02-04T14:21:21;11.40;99.90
35541;DHT22;21650;48.840;9.162;2024-02-04T14:23:46;11.30;99.90
35541;DHT22;21650;48.840;9.162;2024-02-04T14:26:19;11.20;99.90
35541;DHT22;21650;48.840;9.162;2024-02-04T14:28:45;11.20;99.90
35541;DHT22;21650;48.840;9.162;2024-02-04T14:31:11;11.20;99.90
35541;DHT22;21650;48.840;9.162;2024-02-04T14:33:36;11.20;99.90
35541;DHT22;21650;48.840;9.162;2024-02-04T14:36:02;11.20;99.90
35541;DHT22;21650;48.840;9.162;2024-02-04T14:38:29;11.20;99.90
35541;DHT22;21650;48.840;9.162;2024-02-04T14:40:57;11.20;99.90
35541;DHT22;21650;48.840;9.162;2024-02-04T14:43:23;11.20;99.90
35541;DHT22;21650;48.840;9.162;2024-02-04T14:45:50;11.20;99.90
35541;DHT22;21650;48.840;9.162;2024-02-04T14:48:15;11.10;99.90
35541;DHT22;21650;48.840;9.162;2024-02-04T14:50:41;11.10;99.90
35541;DHT22;21650;48.840;9.162;2024-02-04T14:53:07;11.20;99.90
35541;DHT22;21650;48.840;9.162;2024-02-04T14:55:33;11.20;99.90
35541;DHT22;21650;48.840;9.162;2024-02-04T14:57:59;11.10;99.90
35541;DHT22;21650;48.840;9.162;2024-02-04T15:00:25;11.20;99.90
35541;DHT22;21650;48.840;9.162;2024-02-04T15:02:52;11.10;99.90
35541;DHT22;21650;48.840;9.162;2024-02-04T15:05:17;11.10;99.90
35541;DHT22;21650;48.840;9.162;2024-02-04T15:07:43;11.00;99.90
35541;DHT22;21650;48.840;9.162;2024-02-04T15:10:09;11.00;99.90
35541;DHT22;21650;48.840;9.162;2024-02-04T15:12:38;11.00;99.90
35541;DHT22;21650;48.840;9.162;2024-02-04T15:15:04;10.90;99.90
35541;DHT22;21650;48.840;9.162;2024-02-04T15:17:32;10.90;99.90
35541;DHT22;21650;48.840;9.162;2024-02-04T15:19:58;10.90;99.90
35541;DHT22;21650;48.840;9.162;2024-02-04T15:22:24;10.90;99.90
35541;DHT22;21650;48.840;9.162;2024-02-04T15:24:49;10.90;99.90
35541;DHT22;21650;48.840;9.162;2024-02-04T15:27:17;10.90;99.90
35541;DHT22;21650;48.840;9.162;2024-02-04T15:29:44;10.80;99.90
35541;DHT22;21650;48.840;9.162;2024-02-04T15:32:12;10.80;99.90
35541;DHT22;21650;48.840;9.162;2024-02-04T15:34:38;10.80;99.90
35541;DHT22;21650;48.840;9.162;2024-02-04T15:37:05;10.70;99.90
35541;DHT22;21650;48.840;9.162;2024-02-04T15:39:31;10.70;99.90
35541;DHT22;21650;48.840;9.162;2024-02-04T15:41:57;10.70;99.90
35541;DHT22;21650;48.840;9.162;2024-02-04T15:44:22;10.60;99.90
35541;DHT22;21650;48.840;9.162;2024-02-04T15:46:48;10.60;99.90